Time;durP1;ratioP1;P1;durP2;ratioP2;P2;SDS_P1;SDS_P2;PMS_P1;PMS_P2;Temp;Humidity;BMP_temperature;BMP_pressure;BME280_temperature;BME280_humidity;BME280_pressure;Samples;Min_cycle;Max_cycle;Signal;HPM_P1;HPM_P2
2023/08/15 00:01:14;;;;;;;14.40;5.80;;;23.20;99.90;;;;;;4960306;28;20451;-81
2023/08/15 00:03:39;;;;;;;6.03;5.43;;;23.20;99.90;;;;;;4956368;28;20522;-82
2023/08/15 00:06:05;;;;;;;6.00;5.33;;;23.20;99.90;;;;;;4965234;28;20617;-83
2023/08/15 00:08:31;;;;;;;8.53;5.83;;;23.20;1.00;;;;;;4955105;28;20211;-83
2023/08/15 00:10:56;;;;;;;6.10;4.93;;;23.20;99.90;;;;;;4958956;28;20620;-84
2023/08/15 00:13:22;;;;;;;6.83;4.63;;;23.20;1.00;;;;;;4960860;28;20615;-82
2023/08/15 00:15:47;;;;;;;5.27;4.87;;;23.20;1.00;;;;;;4963047;28;20190;-83
2023/08/15 00:18:13;;;;;;;9.70;4.87;;;23.30;1.00;;;;;;4954263;28;20185;-84
2023/08/15 00:20:38;;;;;;;9.17;5.60;;;23.30;1.00;;;;;;4960265;28;20227;-82
2023/08/15 00:23:04;;;;;;;6.30;4.67;;;23.30;99.90;;;;;;4958149;28;20272;-82
2023/08/15 00:25:30;;;;;;;7.20;4.90;;;23.30;99.90;;;;;;4961416;28;20196;-83
2023/08/15 00:27:55;;;;;;;7.67;5.90;;;23.40;99.90;;;;;;4958362;28;20192;-80
2023/08/15 00:30:21;;;;;;;6.00;5.40;;;23.40;99.90;;;;;;4952957;28;20224;-81
2023/08/15 00:32:46;;;;;;;8.90;5.43;;;23.40;99.90;;;;;;4959452;28;20195;-82
2023/08/15 00:35:12;;;;;;;6.80;5.53;;;23.40;99.90;;;;;;4962902;28;20557;-84
2023/08/15 00:37:37;;;;;;;5.67;4.83;;;23.50;99.90;;;;;;4957776;28;20181;-82
2023/08/15 00:40:04;;;;;;;5.40;4.90;;;23.50;99.90;;;;;;4956242;28;20679;-82
2023/08/15 00:42:30;;;;;;;6.73;4.90;;;23.50;99.90;;;;;;4959879;28;20539;-82
2023/08/15 00:44:56;;;;;;;7.53;5.13;;;23.50;99.90;;;;;;4961938;28;20448;-82
2023/08/15 00:47:21;;;;;;;6.93;5.53;;;23.50;99.90;;;;;;4958574;28;20203;-82
2023/08/15 00:49:47;;;;;;;7.50;5.30;;;23.50;1.00;;;;;;4959913;28;22491;-82
2023/08/15 00:52:15;;;;;;;5.97;5.37;;;23.50;1.00;;;;;;4957876;28;20196;-80
2023/08/15 00:54:45;;;;;;;7.63;4.83;;;23.50;1.00;;;;;;4962963;28;20201;-81
2023/08/15 00:57:11;;;;;;;10.93;5.27;;;23.50;1.00;;;;;;4960809;28;20440;-82
2023/08/15 00:59:37;;;;;;;5.37;4.87;;;23.50;1.00;;;;;;4973055;28;20460;-82
2023/08/15 01:02:02;;;;;;;4.80;4.40;;;23.50;1.00;;;;;;4959779;28;20702;-84
2023/08/15 01:04:30;;;;;;;6.40;5.13;;;23.50;1.00;;;;;;4954207;28;20196;-83
2023/08/15 01:06:56;;;;;;;13.93;5.40;;;23.50;1.00;;;;;;4958483;28;20442;-81
2023/08/15 01:09:21;;;;;;;5.83;4.63;;;23.50;1.00;;;;;;4963562;28;20560;-83
2023/08/15 01:12:00;;;;;;;7.30;5.03;;;23.50;1.00;;;;;;4962708;28;20194;-81
2023/08/15 01:14:33;;;;;;;7.97;5.73;;;23.50;1.00;;;;;;4960687;28;20177;-83
2023/08/15 01:17:00;;;;;;;5.07;4.57;;;23.50;1.00;;;;;;4965620;28;20445;-82
2023/08/15 01:19:39;;;;;;;6.70;4.53;;;23.60;1.00;;;;;;4957603;28;20476;-82
2023/08/15 01:22:17;;;;;;;6.53;4.90;;;23.60;1.00;;;;;;4962734;28;20989;-81
2023/08/15 01:24:44;;;;;;;7.03;5.20;;;23.60;1.00;;;;;;4960103;28;20441;-80
2023/08/15 01:27:09;;;;;;;6.00;4.93;;;23.60;1.00;;;;;;4968040;28;20443;-82
2023/08/15 01:29:35;;;;;;;6.87;4.40;;;23.60;1.00;;;;;;4960583;28;20858;-82
2023/08/15 01:32:09;;;;;;;6.20;4.50;;;23.70;1.00;;;;;;4958138;28;20205;-83
2023/08/15 01:34:44;;;;;;;6.23;4.70;;;23.70;1.00;;;;;;4963686;28;20182;-82
2023/08/15 01:37:16;;;;;;;7.37;4.43;;;23.70;99.90;;;;;;4957530;28;20440;-82
2023/08/15 01:39:47;;;;;;;5.73;5.13;;;23.70;99.90;;;;;;4962934;28;20468;-80
2023/08/15 01:42:14;;;;;;;5.80;4.70;;;23.70;99.90;;;;;;4957240;28;20455;-82
2023/08/15 01:44:40;;;;;;;6.27;4.90;;;23.70;99.90;;;;;;4958101;28;20444;-83
2023/08/15 01:47:06;;;;;;;5.50;4.23;;;23.70;99.90;;;;;;4957586;28;20832;-83
2023/08/15 01:49:31;;;;;;;6.37;4.13;;;23.70;99.90;;;;;;4956206;28;20484;-81
2023/08/15 01:51:57;;;;;;;5.00;4.50;;;23.70;95.10;;;;;;4964386;28;20213;-83
2023/08/15 01:54:22;;;;;;;7.60;5.20;;;23.70;31.50;;;;;;4963874;28;20240;-82
2023/08/15 01:56:48;;;;;;;5.40;4.60;;;23.70;1.00;;;;;;4965369;28;20181;-84
2023/08/15 01:59:13;;;;;;;6.33;5.03;;;23.70;1.00;;;;;;4968170;28;20432;-84
2023/08/15 02:01:39;;;;;;;8.70;5.27;;;23.70;1.00;;;;;;4967609;28;20205;-83
2023/08/15 02:04:04;;;;;;;7.10;4.10;;;23.70;1.00;;;;;;4962383;28;20195;-84
2023/08/15 02:06:30;;;;;;;6.63;4.03;;;23.70;1.00;;;;;;4966337;28;20716;-81
2023/08/15 02:08:55;;;;;;;6.50;4.87;;;23.70;1.00;;;;;;4960317;28;20220;-84
2023/08/15 02:11:21;;;;;;;6.30;4.87;;;23.70;1.00;;;;;;4962851;28;20178;-82
2023/08/15 02:13:47;;;;;;;4.10;3.70;;;23.70;1.00;;;;;;4963981;28;20304;-81
2023/08/15 02:16:12;;;;;;;5.97;4.70;;;23.70;1.00;;;;;;4957471;28;20235;-82
2023/08/15 02:18:38;;;;;;;8.80;5.03;;;23.70;1.00;;;;;;4958674;28;20472;-82
2023/08/15 02:21:03;;;;;;;7.03;4.60;;;23.70;99.90;;;;;;4960043;28;20749;-85
2023/08/15 02:23:29;;;;;;;7.00;5.10;;;23.70;1.00;;;;;;4954125;28;20206;-82
2023/08/15 02:25:54;;;;;;;6.43;5.77;;;23.60;99.90;;;;;;4959095;28;20193;-83
2023/08/15 02:28:20;;;;;;;10.83;5.80;;;23.50;1.00;;;;;;4957240;28;20190;-84
2023/08/15 02:30:46;;;;;;;9.07;6.37;;;23.50;81.30;;;;;;4956717;28;20559;-84
2023/08/15 02:33:11;;;;;;;10.53;7.00;;;23.30;99.90;;;;;;4965474;28;20594;-81
2023/08/15 02:35:41;;;;;;;7.83;6.60;;;23.10;99.90;;;;;;4964105;28;20619;-83
2023/08/15 02:38:07;;;;;;;8.70;5.63;;;23.00;99.90;;;;;;4953082;28;20192;-83
2023/08/15 02:40:33;;;;;;;8.50;7.10;;;22.90;1.00;;;;;;4962255;28;20468;-81
2023/08/15 02:42:58;;;;;;;12.37;7.00;;;22.80;1.00;;;;;;4957664;28;20819;-83
2023/08/15 02:45:24;;;;;;;9.40;7.00;;;22.70;1.00;;;;;;4963764;28;20736;-80
2023/08/15 02:47:49;;;;;;;15.23;7.57;;;22.60;1.00;;;;;;4962858;28;20218;-81
2023/08/15 02:50:15;;;;;;;14.30;8.83;;;22.50;1.00;;;;;;4958244;28;20647;-81
2023/08/15 02:52:41;;;;;;;11.13;8.00;;;22.40;1.00;;;;;;4955956;28;21040;-82
2023/08/15 02:55:06;;;;;;;11.70;7.10;;;22.30;1.00;;;;;;4954761;28;20191;-83
2023/08/15 02:57:32;;;;;;;13.97;8.40;;;22.20;1.00;;;;;;4954275;28;20195;-83
2023/08/15 02:59:57;;;;;;;8.90;8.00;;;22.20;1.00;;;;;;4959051;28;20470;-83
2023/08/15 03:02:23;;;;;;;9.73;7.57;;;22.00;1.00;;;;;;4953701;28;20218;-83
2023/08/15 03:04:49;;;;;;;16.17;8.23;;;22.00;1.00;;;;;;4959098;28;20191;-81
2023/08/15 03:07:14;;;;;;;13.20;7.47;;;21.90;1.00;;;;;;4959721;28;20292;-82
2023/08/15 03:09:40;;;;;;;11.30;6.80;;;21.80;1.00;;;;;;4959831;28;21220;-82
2023/08/15 03:12:05;;;;;;;9.90;6.37;;;21.70;1.00;;;;;;4958242;28;20185;-83
2023/08/15 03:14:31;;;;;;;9.90;6.43;;;21.70;1.00;;;;;;4961064;28;20195;-83
2023/08/15 03:16:56;;;;;;;9.17;6.37;;;21.70;1.00;;;;;;4955965;28;20296;-86
2023/08/15 03:19:22;;;;;;;8.40;7.00;;;21.60;1.00;;;;;;4958084;28;20249;-83
2023/08/15 03:21:47;;;;;;;8.83;7.77;;;21.50;1.00;;;;;;4963394;28;20191;-82
2023/08/15 03:24:13;;;;;;;15.90;8.90;;;21.50;1.00;;;;;;4958619;28;20670;-81
2023/08/15 03:26:39;;;;;;;10.63;7.60;;;21.50;1.00;;;;;;4959262;28;20181;-82
2023/08/15 03:29:05;;;;;;;12.40;7.80;;;21.50;1.00;;;;;;4969947;28;20579;-81
2023/08/15 03:31:30;;;;;;;14.20;8.20;;;21.40;1.00;;;;;;4960245;28;20177;-83
2023/08/15 03:33:56;;;;;;;10.70;7.70;;;21.40;1.00;;;;;;4956973;28;20460;-81
2023/08/15 03:36:22;;;;;;;12.53;7.07;;;21.40;1.00;;;;;;4974264;28;20731;-80
2023/08/15 03:38:47;;;;;;;12.07;7.80;;;21.40;1.00;;;;;;4959860;28;20696;-81
2023/08/15 03:41:13;;;;;;;12.37;7.57;;;21.40;1.00;;;;;;4959544;28;20213;-84
2023/08/15 03:43:38;;;;;;;9.87;7.67;;;21.40;1.00;;;;;;4956604;28;20193;-81
2023/08/15 03:46:04;;;;;;;10.47;8.17;;;21.40;1.00;;;;;;4956514;28;20682;-82
2023/08/15 03:48:30;;;;;;;9.97;8.43;;;21.30;1.00;;;;;;4962279;28;20224;-82
2023/08/15 03:50:56;;;;;;;11.73;8.30;;;21.30;1.00;;;;;;4957548;28;20455;-84
2023/08/15 03:53:22;;;;;;;10.23;8.00;;;21.30;1.00;;;;;;4959977;28;20198;-81
2023/08/15 03:55:49;;;;;;;10.93;7.70;;;21.30;1.00;;;;;;4960843;28;20445;-82
2023/08/15 03:58:18;;;;;;;11.47;7.90;;;21.30;1.00;;;;;;4961762;28;20188;-84
2023/08/15 04:00:44;;;;;;;11.20;8.10;;;21.30;1.00;;;;;;4961600;28;20459;-83
2023/08/15 04:03:10;;;;;;;14.20;8.97;;;21.30;1.00;;;;;;4956148;28;20443;-82
2023/08/15 04:05:36;;;;;;;12.20;8.20;;;21.30;1.00;;;;;;4964876;28;20661;-80
2023/08/15 04:08:02;;;;;;;11.83;8.80;;;21.20;1.00;;;;;;4956167;28;20194;-82
2023/08/15 04:10:28;;;;;;;13.17;7.77;;;21.20;1.00;;;;;;4958068;28;20747;-80
2023/08/15 04:12:54;;;;;;;16.70;9.37;;;21.20;1.00;;;;;;4957563;28;20448;-82
2023/08/15 04:15:20;;;;;;;12.60;9.17;;;21.20;1.00;;;;;;4960331;28;20553;-83
2023/08/15 04:17:45;;;;;;;15.43;10.33;;;21.20;1.00;;;;;;4958548;28;20817;-83
2023/08/15 04:20:12;;;;;;;13.20;9.67;;;21.10;1.00;;;;;;4958698;28;20201;-82
2023/08/15 04:22:38;;;;;;;12.90;9.80;;;21.10;1.00;;;;;;4956320;28;20204;-82
2023/08/15 04:25:06;;;;;;;10.67;9.50;;;21.10;1.00;;;;;;4960878;28;20523;-83
2023/08/15 04:27:32;;;;;;;12.63;10.00;;;21.10;1.00;;;;;;4956771;28;20738;-82
2023/08/15 04:29:57;;;;;;;15.20;11.67;;;21.10;1.00;;;;;;4960209;28;20467;-82
2023/08/15 04:32:23;;;;;;;21.10;11.83;;;21.10;1.00;;;;;;4955444;28;20213;-80
2023/08/15 04:34:48;;;;;;;15.37;11.27;;;21.10;1.00;;;;;;4956898;28;20273;-80
2023/08/15 04:37:14;;;;;;;14.00;10.93;;;21.10;1.00;;;;;;4955128;28;20187;-83
2023/08/15 04:39:39;;;;;;;16.73;11.70;;;21.10;1.00;;;;;;4959419;28;20205;-84
2023/08/15 04:42:05;;;;;;;16.93;10.53;;;21.10;1.00;;;;;;4954728;28;20613;-81
2023/08/15 04:44:30;;;;;;;14.53;10.07;;;21.10;1.00;;;;;;4962604;28;20202;-83
2023/08/15 04:46:56;;;;;;;10.63;9.50;;;21.10;1.00;;;;;;4960808;28;20239;-84
2023/08/15 04:49:22;;;;;;;14.13;10.53;;;21.10;1.00;;;;;;4960830;28;20229;-83
2023/08/15 04:51:47;;;;;;;15.53;9.90;;;21.00;1.00;;;;;;4961793;28;20198;-82
2023/08/15 04:54:12;;;;;;;12.63;9.40;;;21.00;1.00;;;;;;4964447;28;20206;-81
2023/08/15 04:56:38;;;;;;;10.70;9.23;;;21.00;1.00;;;;;;4966177;28;20193;-82
2023/08/15 04:59:04;;;;;;;11.83;9.13;;;21.00;1.00;;;;;;4964405;28;20555;-82
2023/08/15 05:01:29;;;;;;;14.93;9.00;;;21.00;1.00;;;;;;4962226;28;20225;-80
2023/08/15 05:03:55;;;;;;;10.33;8.37;;;21.00;1.00;;;;;;4961001;28;20276;-81
2023/08/15 05:06:20;;;;;;;11.30;8.27;;;21.00;1.00;;;;;;4968208;28;20181;-82
2023/08/15 05:08:46;;;;;;;7.33;5.77;;;21.10;1.00;;;;;;4966233;28;20209;-83
2023/08/15 05:11:11;;;;;;;9.53;5.03;;;21.00;1.00;;;;;;4964961;28;20299;-81
2023/08/15 05:13:37;;;;;;;8.43;4.67;;;21.00;1.00;;;;;;4962168;28;20590;-84
2023/08/15 05:16:03;;;;;;;6.57;3.87;;;21.00;1.00;;;;;;4963588;28;20194;-82
2023/08/15 05:18:28;;;;;;;9.60;5.17;;;20.90;99.90;;;;;;4960667;28;20195;-83
2023/08/15 05:20:54;;;;;;;10.63;5.60;;;20.90;99.90;;;;;;4962546;28;20472;-84
2023/08/15 05:23:20;;;;;;;10.03;4.40;;;20.80;99.90;;;;;;4967073;28;20183;-83
2023/08/15 05:25:46;;;;;;;9.23;4.43;;;20.80;99.90;;;;;;4964625;28;20203;-83
2023/08/15 05:28:12;;;;;;;9.90;5.10;;;20.90;99.90;;;;;;4965556;28;20197;-82
2023/08/15 05:30:38;;;;;;;7.17;4.67;;;20.90;99.90;;;;;;4967564;28;20813;-84
2023/08/15 05:33:04;;;;;;;7.70;4.00;;;20.90;99.90;;;;;;4959052;28;20252;-82
2023/08/15 05:35:30;;;;;;;5.80;3.80;;;20.80;99.90;;;;;;4966336;28;20927;-83
2023/08/15 05:37:55;;;;;;;6.90;4.50;;;20.90;99.90;;;;;;4970236;28;20199;-83
2023/08/15 05:40:21;;;;;;;6.90;4.10;;;20.90;99.90;;;;;;4964409;28;20219;-83
2023/08/15 05:42:47;;;;;;;9.47;4.33;;;21.00;99.90;;;;;;4965573;28;20653;-83
2023/08/15 05:45:14;;;;;;;11.93;4.80;;;21.00;99.90;;;;;;4967903;28;20260;-81
2023/08/15 05:47:40;;;;;;;5.93;4.40;;;21.00;99.90;;;;;;4965292;28;20488;-83
2023/08/15 05:50:06;;;;;;;8.70;4.60;;;21.00;99.90;;;;;;4968972;28;20500;-83
2023/08/15 05:52:31;;;;;;;9.60;4.67;;;21.00;28.20;;;;;;4969467;28;20445;-83
2023/08/15 05:54:57;;;;;;;10.67;4.90;;;21.00;49.80;;;;;;4965273;28;20691;-82
2023/08/15 05:57:23;;;;;;;9.47;5.63;;;21.00;99.90;;;;;;4977854;28;20182;-81
2023/08/15 05:59:48;;;;;;;8.20;5.80;;;21.00;32.40;;;;;;4971358;28;20210;-80
2023/08/15 06:02:14;;;;;;;9.87;6.67;;;21.10;1.00;;;;;;4961353;28;20199;-83
2023/08/15 06:04:40;;;;;;;10.00;7.17;;;21.20;1.00;;;;;;4958830;28;21045;-83
2023/08/15 06:07:06;;;;;;;8.50;5.43;;;21.40;1.00;;;;;;4966553;28;20222;-83
2023/08/15 06:09:32;;;;;;;9.30;5.00;;;21.40;99.90;;;;;;4957836;28;20249;-82
2023/08/15 06:11:57;;;;;;;11.67;4.77;;;21.50;99.90;;;;;;4963582;28;20192;-83
2023/08/15 06:14:23;;;;;;;12.97;4.60;;;21.50;99.90;;;;;;4961790;28;20225;-83
2023/08/15 06:16:48;;;;;;;5.97;4.00;;;21.60;77.00;;;;;;4962053;28;20191;-82
2023/08/15 06:19:14;;;;;;;7.40;4.53;;;21.70;1.00;;;;;;4960694;28;20269;-81
2023/08/15 06:21:42;;;;;;;11.37;4.80;;;21.80;1.00;;;;;;4960201;28;20215;-80
2023/08/15 06:24:12;;;;;;;11.70;4.50;;;22.00;99.90;;;;;;4964579;28;20198;-82
2023/08/15 06:26:38;;;;;;;7.60;4.43;;;22.20;99.90;;;;;;4956802;28;21013;-84
2023/08/15 06:29:04;;;;;;;6.47;3.80;;;22.60;44.50;;;;;;4960171;28;20473;-83
2023/08/15 06:31:31;;;;;;;6.63;4.70;;;22.70;1.00;;;;;;4956858;28;20479;-82
2023/08/15 06:33:57;;;;;;;11.87;4.50;;;22.80;1.00;;;;;;4959569;28;20558;-82
2023/08/15 06:36:23;;;;;;;8.73;4.47;;;22.90;99.90;;;;;;4959486;28;20447;-81
2023/08/15 06:38:51;;;;;;;9.10;4.03;;;24.90;27.30;;;;;;4961404;28;20192;-83
2023/08/15 06:41:17;;;;;;;8.60;3.50;;;26.60;99.90;;;;;;4958891;28;20188;-83
2023/08/15 06:43:44;;;;;;;5.27;3.27;;;29.50;1.00;;;;;;4957865;28;20499;-84
2023/08/15 06:46:13;;;;;;;8.20;3.60;;;33.20;1.00;;;;;;4965921;28;20180;-84
2023/08/15 06:48:39;;;;;;;6.27;3.60;;;36.80;1.00;;;;;;4959429;28;20509;-86
2023/08/15 06:51:06;;;;;;;5.63;4.07;;;35.10;1.00;;;;;;4963550;28;20901;-81
2023/08/15 06:53:31;;;;;;;6.87;4.63;;;33.70;1.00;;;;;;4958306;28;20448;-83
2023/08/15 06:55:57;;;;;;;9.13;3.80;;;32.20;1.00;;;;;;4964240;28;20205;-85
2023/08/15 06:58:24;;;;;;;5.67;4.10;;;31.30;1.00;;;;;;4957434;28;20216;-85
2023/08/15 07:00:49;;;;;;;6.23;3.90;;;32.10;1.00;;;;;;4961135;28;20483;-86
2023/08/15 07:03:18;;;;;;;8.67;4.00;;;35.30;1.00;;;;;;4959369;28;20458;-87
2023/08/15 07:05:45;;;;;;;7.53;3.80;;;38.90;1.00;;;;;;4963613;28;20628;-85
2023/08/15 07:08:12;;;;;;;6.83;3.70;;;42.00;1.00;;;;;;4959224;28;20456;-83
2023/08/15 07:10:38;;;;;;;5.13;3.33;;;43.90;1.00;;;;;;4956776;28;20464;-82
2023/08/15 07:13:04;;;;;;;5.80;3.93;;;44.90;99.90;;;;;;4955400;28;20444;-85
2023/08/15 07:15:31;;;;;;;4.63;3.40;;;46.10;99.90;;;;;;4955497;28;20653;-85
2023/08/15 07:17:56;;;;;;;6.03;2.90;;;48.00;99.90;;;;;;4953871;28;20187;-84
2023/08/15 07:20:22;;;;;;;6.40;2.87;;;49.90;99.90;;;;;;4954742;28;20459;-83
2023/08/15 07:22:48;;;;;;;5.40;3.17;;;50.90;99.90;;;;;;4956488;28;20693;-83
2023/08/15 07:25:13;;;;;;;7.22;3.60;;;51.70;99.90;;;;;;4953469;28;20184;-82
2023/08/15 07:27:39;;;;;;;5.65;2.70;;;52.40;99.90;;;;;;4957789;28;20612;-83
2023/08/15 07:30:05;;;;;;;6.75;2.72;;;53.10;99.90;;;;;;4958064;28;20216;-84
2023/08/15 07:32:33;;;;;;;5.93;2.80;;;53.80;99.90;;;;;;4961857;28;20276;-84
2023/08/15 07:34:59;;;;;;;5.05;3.20;;;54.10;99.90;;;;;;4955677;28;20243;-84
2023/08/15 07:37:24;;;;;;;7.43;2.78;;;54.40;99.90;;;;;;4956576;28;20196;-81
2023/08/15 07:39:57;;;;;;;4.78;2.78;;;54.50;99.90;;;;;;4956934;28;20251;-83
2023/08/15 07:42:23;;;;;;;6.00;3.05;;;54.90;99.90;;;;;;4959778;28;20274;-84
2023/08/15 07:44:48;;;;;;;3.22;2.15;;;55.20;99.90;;;;;;4957105;28;20291;-81
2023/08/15 07:47:14;;;;;;;6.60;2.70;;;55.50;99.90;;;;;;4961302;28;20195;-82
2023/08/15 07:49:39;;;;;;;7.25;2.42;;;54.70;99.90;;;;;;4961234;28;20215;-84
2023/08/15 07:52:05;;;;;;;4.78;2.40;;;55.00;99.90;;;;;;4950110;28;20255;-83
2023/08/15 07:54:30;;;;;;;6.30;3.13;;;55.30;99.90;;;;;;4956475;28;20259;-87
2023/08/15 07:56:56;;;;;;;4.97;2.13;;;55.60;99.90;;;;;;4958434;28;20192;-84
2023/08/15 07:59:22;;;;;;;5.63;1.70;;;56.30;99.90;;;;;;4955720;28;20215;-84
2023/08/15 08:01:48;;;;;;;3.55;1.77;;;56.00;99.90;;;;;;4961070;28;20183;-84
2023/08/15 08:04:13;;;;;;;3.20;1.67;;;55.30;99.90;;;;;;4963145;28;20569;-83
2023/08/15 08:06:39;;;;;;;3.30;1.60;;;55.10;99.90;;;;;;4957814;28;20180;-84
2023/08/15 08:09:05;;;;;;;4.27;1.93;;;52.70;99.90;;;;;;4954009;28;20192;-83
2023/08/15 08:11:31;;;;;;;4.17;2.00;;;51.40;99.90;;;;;;4969393;28;20184;-82
2023/08/15 08:13:56;;;;;;;4.37;2.40;;;50.30;99.90;;;;;;4961097;28;20977;-83
2023/08/15 08:16:22;;;;;;;3.93;1.83;;;49.80;99.90;;;;;;4964522;28;20619;-84
2023/08/15 08:18:47;;;;;;;3.50;1.73;;;48.90;99.90;;;;;;4964352;28;20215;-83
2023/08/15 08:21:13;;;;;;;2.90;1.60;;;48.10;99.90;;;;;;4961647;28;20204;-85
2023/08/15 08:23:38;;;;;;;4.30;1.87;;;49.00;99.90;;;;;;4963682;28;20180;-82
2023/08/15 08:26:04;;;;;;;3.60;1.50;;;50.50;99.90;;;;;;4966285;28;20191;-83
2023/08/15 08:28:30;;;;;;;2.80;1.53;;;51.40;99.90;;;;;;4959258;28;20181;-83
2023/08/15 08:30:56;;;;;;;4.25;1.67;;;52.60;99.90;;;;;;4954641;28;20204;-83
2023/08/15 08:33:21;;;;;;;5.35;2.33;;;53.10;99.90;;;;;;4954746;28;20373;-83
2023/08/15 08:35:47;;;;;;;4.90;1.90;;;53.70;99.90;;;;;;4962264;28;20180;-81
2023/08/15 08:38:12;;;;;;;4.70;2.00;;;54.30;99.90;;;;;;4962956;28;20294;-80
2023/08/15 08:40:39;;;;;;;3.90;1.90;;;53.80;99.90;;;;;;4956816;28;20215;-83
2023/08/15 08:43:05;;;;;;;4.63;1.97;;;51.70;99.90;;;;;;4963642;28;20220;-82
2023/08/15 08:45:32;;;;;;;2.53;1.50;;;51.20;99.90;;;;;;4975675;28;20957;-82
2023/08/15 08:47:58;;;;;;;4.30;1.90;;;52.00;99.90;;;;;;4952540;28;20196;-83
2023/08/15 08:50:26;;;;;;;5.40;1.60;;;52.70;99.90;;;;;;4961489;28;20214;-83
2023/08/15 08:52:52;;;;;;;2.17;1.35;;;52.90;99.90;;;;;;4959093;28;20705;-85
2023/08/15 08:55:19;;;;;;;2.28;1.40;;;53.20;99.90;;;;;;4958313;28;20710;-82
2023/08/15 08:57:49;;;;;;;3.33;1.55;;;53.30;99.90;;;;;;4953902;28;20286;-82
2023/08/15 09:00:17;;;;;;;2.75;1.55;;;53.70;99.90;;;;;;4962129;28;20231;-85
2023/08/15 09:02:43;;;;;;;2.60;1.17;;;54.00;99.90;;;;;;4951912;28;20219;-84
2023/08/15 09:05:09;;;;;;;1.98;1.02;;;54.20;99.90;;;;;;4962012;28;20177;-85
2023/08/15 09:07:36;;;;;;;2.92;1.33;;;54.40;99.90;;;;;;4966278;28;20187;-83
2023/08/15 09:10:04;;;;;;;1.95;1.00;;;53.70;99.00;;;;;;4969197;28;20214;-84
2023/08/15 09:12:36;;;;;;;1.77;1.30;;;53.40;99.80;;;;;;4954208;28;20662;-84
2023/08/15 09:15:04;;;;;;;3.08;1.40;;;53.80;97.70;;;;;;4958245;28;20201;-84
2023/08/15 09:17:30;;;;;;;3.55;1.60;;;54.30;98.10;;;;;;4960352;28;20215;-84
2023/08/15 09:19:56;;;;;;;3.05;1.58;;;53.10;99.40;;;;;;4962279;28;20219;-83
2023/08/15 09:22:23;;;;;;;2.53;1.27;;;52.60;97.10;;;;;;4967040;28;20191;-83
2023/08/15 09:24:50;;;;;;;2.83;1.67;;;51.70;78.90;;;;;;4954230;28;20187;-84
2023/08/15 09:27:16;;;;;;;8.13;1.70;;;50.80;56.70;;;;;;4968409;28;20180;-82
2023/08/15 09:29:42;;;;;;;4.10;1.80;;;50.20;52.00;;;;;;4959439;28;20490;-85
2023/08/15 09:32:08;;;;;;;3.20;1.60;;;50.00;53.20;;;;;;4965293;28;20482;-84
2023/08/15 09:34:34;;;;;;;2.90;1.20;;;49.90;99.90;;;;;;4966503;28;20180;-82
2023/08/15 09:37:00;;;;;;;2.83;1.50;;;50.30;99.90;;;;;;4959012;28;20453;-84
2023/08/15 09:39:33;;;;;;;3.67;1.50;;;50.90;99.90;;;;;;4976995;28;20223;-84
2023/08/15 09:41:58;;;;;;;3.20;1.40;;;51.50;99.90;;;;;;4962557;28;20271;-84
2023/08/15 09:44:32;;;;;;;3.47;2.27;;;51.20;99.90;;;;;;4955998;28;20259;-81
2023/08/15 09:47:00;;;;;;;4.33;1.50;;;51.20;99.90;;;;;;4967091;28;20204;-83
2023/08/15 09:49:28;;;;;;;2.90;1.50;;;50.70;98.70;;;;;;4968985;28;20199;-83
2023/08/15 09:51:54;;;;;;;2.93;1.63;;;50.20;97.70;;;;;;4959200;28;20196;-84
2023/08/15 09:54:21;;;;;;;3.00;1.30;;;50.60;99.90;;;;;;4962778;28;20238;-84
2023/08/15 09:56:47;;;;;;;3.10;1.57;;;51.30;99.90;;;;;;4960909;28;20547;-84
2023/08/15 09:59:12;;;;;;;3.70;1.60;;;51.90;99.90;;;;;;4967840;28;20230;-84
2023/08/15 10:01:40;;;;;;;3.07;1.37;;;50.90;93.20;;;;;;4971532;28;20187;-84
2023/08/15 10:04:10;;;;;;;4.50;1.90;;;50.10;99.90;;;;;;4966163;28;20184;-85
2023/08/15 10:06:36;;;;;;;3.17;1.40;;;50.70;99.90;;;;;;4965198;28;20886;-83
2023/08/15 10:09:03;;;;;;;4.20;1.30;;;50.60;99.90;;;;;;4970378;28;20847;-86
2023/08/15 10:11:33;;;;;;;2.40;1.60;;;50.70;99.90;;;;;;4964722;28;20184;-84
2023/08/15 10:13:59;;;;;;;2.77;1.53;;;51.10;99.90;;;;;;4968402;28;20200;-82
2023/08/15 10:16:26;;;;;;;2.47;1.40;;;50.60;99.90;;;;;;4957245;28;20444;-83
2023/08/15 10:18:57;;;;;;;1.60;1.10;;;49.80;99.90;;;;;;4962716;28;20525;-83
2023/08/15 10:21:29;;;;;;;3.30;1.93;;;49.90;99.90;;;;;;4961007;28;20435;-82
2023/08/15 10:24:02;;;;;;;4.60;1.50;;;51.10;99.90;;;;;;4960384;28;20436;-83
2023/08/15 10:26:28;;;;;;;3.13;1.47;;;51.60;99.90;;;;;;4969331;28;20439;-84
2023/08/15 10:28:56;;;;;;;4.53;1.90;;;52.00;99.90;;;;;;4969305;28;20439;-85
2023/08/15 10:31:39;;;;;;;3.20;1.40;;;51.50;99.90;;;;;;4967894;28;21003;-83
2023/08/15 10:34:08;;;;;;;2.60;1.77;;;51.20;99.90;;;;;;4966555;28;20829;-84
2023/08/15 10:36:34;;;;;;;3.90;1.50;;;50.50;99.90;;;;;;4967414;28;20446;-85
2023/08/15 10:39:05;;;;;;;4.40;1.37;;;50.50;99.90;;;;;;4959203;28;20471;-82
2023/08/15 10:41:32;;;;;;;2.97;1.50;;;50.70;99.90;;;;;;4958932;28;20186;-84
2023/08/15 10:44:03;;;;;;;3.20;1.30;;;51.30;99.90;;;;;;4960386;28;20423;-82
2023/08/15 10:46:30;;;;;;;1.93;1.10;;;50.70;99.90;;;;;;4954667;28;20424;-84
2023/08/15 10:49:01;;;;;;;2.43;1.80;;;50.80;99.90;;;;;;4955537;28;20443;-83
2023/08/15 10:51:29;;;;;;;1.97;1.30;;;49.10;99.90;;;;;;4957560;28;20428;-82
2023/08/15 10:54:03;;;;;;;5.77;1.47;;;47.60;99.90;;;;;;4954616;28;20457;-84
2023/08/15 10:56:34;;;;;;;6.03;1.80;;;47.60;99.90;;;;;;4959338;28;20430;-84
2023/08/15 10:59:08;;;;;;;3.30;1.20;;;48.30;99.90;;;;;;4963190;28;20535;-84
2023/08/15 11:01:39;;;;;;;5.50;1.43;;;48.70;99.90;;;;;;4969624;28;20445;-84
2023/08/15 11:04:08;;;;;;;2.60;1.30;;;48.10;99.90;;;;;;4969878;28;20446;-84
2023/08/15 11:06:41;;;;;;;2.73;1.70;;;47.80;99.90;;;;;;4957268;28;20782;-84
2023/08/15 11:09:06;;;;;;;4.10;1.80;;;47.80;99.90;;;;;;4960327;28;20443;-84
2023/08/15 11:11:35;;;;;;;3.00;1.60;;;47.40;99.90;;;;;;4961563;28;20440;-84
2023/08/15 11:14:00;;;;;;;4.30;1.63;;;46.80;99.90;;;;;;4967907;28;20235;-81
2023/08/15 11:16:26;;;;;;;2.90;1.40;;;46.70;99.90;;;;;;4965241;28;20440;-83
2023/08/15 11:18:51;;;;;;;4.00;1.57;;;46.10;99.90;;;;;;4965588;28;20238;-83
2023/08/15 11:21:18;;;;;;;4.07;1.63;;;45.70;99.90;;;;;;4963314;28;20188;-84
2023/08/15 11:23:44;;;;;;;7.53;1.80;;;44.80;99.90;;;;;;4977960;28;20184;-81
2023/08/15 11:26:14;;;;;;;3.10;1.27;;;44.50;99.90;;;;;;4964267;28;20444;-85
2023/08/15 11:28:39;;;;;;;4.93;1.63;;;44.10;99.90;;;;;;4959926;28;20832;-80
2023/08/15 11:31:08;;;;;;;4.70;1.53;;;44.40;99.90;;;;;;4956759;28;20452;-81
2023/08/15 11:33:34;;;;;;;2.30;1.20;;;44.70;99.90;;;;;;4963557;28;20185;-82
2023/08/15 11:36:01;;;;;;;2.63;1.40;;;44.80;99.90;;;;;;4959381;28;20957;-84
2023/08/15 11:38:30;;;;;;;4.07;1.53;;;44.90;99.90;;;;;;4962711;28;20188;-85
2023/08/15 11:40:57;;;;;;;4.70;1.40;;;44.90;99.90;;;;;;4953667;28;20518;-84
2023/08/15 11:43:25;;;;;;;3.93;1.77;;;45.40;99.90;;;;;;4961166;28;20527;-85
2023/08/15 11:45:50;;;;;;;3.00;1.23;;;45.40;99.90;;;;;;4958089;28;20958;-82
2023/08/15 11:48:17;;;;;;;2.70;1.43;;;45.90;99.90;;;;;;4968583;28;20474;-82
2023/08/15 11:50:43;;;;;;;5.50;1.47;;;44.90;99.90;;;;;;4968072;28;20258;-81
2023/08/15 11:53:10;;;;;;;3.50;1.80;;;44.90;99.90;;;;;;4963475;28;20435;-81
2023/08/15 11:55:36;;;;;;;3.00;1.50;;;44.10;99.90;;;;;;4957694;28;20203;-84
2023/08/15 11:58:03;;;;;;;4.63;1.43;;;44.00;99.90;;;;;;4961057;28;20432;-82
2023/08/15 12:00:29;;;;;;;3.00;1.63;;;43.30;99.90;;;;;;4957001;28;20219;-81
2023/08/15 12:02:55;;;;;;;3.43;1.80;;;42.30;99.90;;;;;;4965304;28;22329;-81
2023/08/15 12:05:21;;;;;;;5.00;2.00;;;41.60;99.90;;;;;;4972246;28;20650;-83
2023/08/15 12:07:49;;;;;;;5.10;1.77;;;40.40;99.90;;;;;;4974078;28;20482;-83
2023/08/15 12:10:15;;;;;;;3.10;1.43;;;39.70;99.90;;;;;;4968752;28;20286;-81
2023/08/15 12:12:46;;;;;;;2.80;1.40;;;39.10;99.90;;;;;;4964369;28;20455;-81
2023/08/15 12:15:13;;;;;;;3.80;1.67;;;38.70;99.90;;;;;;4963105;28;20443;-81
2023/08/15 12:17:39;;;;;;;2.77;1.57;;;38.90;99.90;;;;;;4970708;28;20422;-83
2023/08/15 12:20:11;;;;;;;4.80;1.97;;;38.80;99.90;;;;;;4959369;28;20479;-81
2023/08/15 12:22:39;;;;;;;2.00;1.63;;;38.40;99.90;;;;;;4956622;28;21240;-83
2023/08/15 12:25:05;;;;;;;5.40;2.63;;;37.60;99.90;;;;;;4968966;28;20435;-81
2023/08/15 12:27:30;;;;;;;4.43;1.80;;;37.10;99.90;;;;;;4972201;28;20419;-81
2023/08/15 12:29:56;;;;;;;6.07;1.77;;;36.90;99.90;;;;;;4959580;28;20451;-81
2023/08/15 12:32:22;;;;;;;4.67;1.60;;;36.90;99.90;;;;;;4966149;28;20652;-82
2023/08/15 12:34:47;;;;;;;2.70;1.57;;;37.00;99.90;;;;;;4963486;28;20236;-85
2023/08/15 12:37:13;;;;;;;3.40;1.80;;;36.80;99.90;;;;;;4958130;28;20192;-85
2023/08/15 12:39:38;;;;;;;3.70;2.27;;;36.50;99.90;;;;;;4958332;28;20623;-86
2023/08/15 12:42:06;;;;;;;4.77;2.10;;;36.40;99.90;;;;;;4972565;28;20212;-86
2023/08/15 12:44:32;;;;;;;3.00;1.50;;;36.70;99.90;;;;;;4958903;28;20212;-87